Time;durP1;ratioP1;P1;durP2;ratioP2;P2;SDS_P1;SDS_P2;PMS_P1;PMS_P2;Temp;Humidity;BMP_temperature;BMP_pressure;BME280_temperature;BME280_humidity;BME280_pressure;Samples;Min_cycle;Max_cycle;Signal;HPM_P1;HPM_P2
2022/08/28 00:01:00;;;;;;;6.50;2.40;;;;;17.70;97159.60;;;;110799;1251;41366;-69
2022/08/28 00:03:31;;;;;;;7.40;2.40;;;;;17.70;97156.80;;;;110806;1251;41270;-68
2022/08/28 00:06:01;;;;;;;8.60;2.60;;;;;17.70;97157.40;;;;110855;1249;41603;-68
2022/08/28 00:08:30;;;;;;;7.60;2.70;;;;;17.66;97155.80;;;;110652;1251;42139;-68
2022/08/28 00:11:01;;;;;;;7.70;2.90;;;;;17.60;97157.00;;;;110732;1250;41723;-69
2022/08/28 00:13:31;;;;;;;7.40;2.30;;;;;17.60;97154.60;;;;110984;1250;42386;-68
2022/08/28 00:16:02;;;;;;;9.50;2.60;;;;;17.60;97155.40;;;;110983;1250;41960;-69
2022/08/28 00:18:32;;;;;;;9.30;3.10;;;;;17.60;97158.80;;;;110973;1250;41956;-69
2022/08/28 00:21:03;;;;;;;11.30;3.50;;;;;17.58;97157.80;;;;110955;1250;42289;-68
2022/08/28 00:23:33;;;;;;;14.30;4.00;;;;;17.50;97158.40;;;;110737;1251;41179;-69
2022/08/28 00:27:51;;;;;;;9.30;3.20;;;;;17.50;97160.60;;;;110652;1251;41264;-68
2022/08/28 00:29:04;;;;;;;7.80;3.00;;;;;17.50;97158.60;;;;110719;1251;41146;-68
2022/08/28 00:31:38;;;;;;;8.00;2.80;;;;;17.40;97161.80;;;;110570;1251;41620;-69
2022/08/28 00:34:08;;;;;;;8.20;3.00;;;;;17.42;97160.40;;;;110598;1253;41916;-68
2022/08/28 00:36:38;;;;;;;7.80;2.70;;;;;17.40;97161.60;;;;110733;1250;41281;-68
2022/08/28 00:39:08;;;;;;;11.40;2.90;;;;;17.40;97160.40;;;;110681;1250;41202;-68
2022/08/28 00:41:37;;;;;;;;;;;;;17.40;97162.40;;;;110564;1253;41556;-68
2022/08/28 00:44:16;;;;;;;;;;;;;17.30;97161.60;;;;110601;1250;41258;-68
2022/08/28 00:46:48;;;;;;;9.90;2.50;;;;;17.30;97160.60;;;;110756;1250;41444;-69
2022/08/28 00:49:23;;;;;;;9.70;3.00;;;;;17.30;97160.80;;;;110709;1250;41249;-68
2022/08/28 00:52:06;;;;;;;9.90;3.10;;;;;17.30;97160.60;;;;110755;1250;41588;-68
2022/08/28 00:54:41;;;;;;;6.20;2.70;;;;;17.20;97161.20;;;;110837;1250;41272;-68
2022/08/28 00:57:30;;;;;;;16.90;3.30;;;;;17.20;97163.40;;;;110987;1248;41980;-68
2022/08/28 01:00:00;;;;;;;7.90;2.80;;;;;17.20;97159.20;;;;110746;1250;41633;-68
2022/08/28 01:02:30;;;;;;;7.70;2.80;;;;;17.20;97158.40;;;;110678;1251;41346;-68
2022/08/28 01:05:01;;;;;;;;;;;;;17.18;97158.20;;;;110618;1250;41655;-68
2022/08/28 01:07:30;;;;;;;6.60;2.50;;;;;17.10;97157.40;;;;110725;1251;41738;-68
2022/08/28 01:10:00;;;;;;;10.80;3.10;;;;;17.10;97156.40;;;;110758;1251;41624;-67
2022/08/28 01:12:30;;;;;;;10.70;3.50;;;;;17.10;97159.40;;;;110946;1249;41182;-68
2022/08/28 01:15:08;;;;;;;8.10;2.60;;;;;17.10;97165.00;;;;110587;1251;42405;-68
2022/08/28 01:17:41;;;;;;;7.70;2.80;;;;;17.10;97160.20;;;;110953;1250;42396;-69
2022/08/28 01:20:16;;;;;;;8.90;2.50;;;;;17.10;97157.20;;;;110567;1251;41189;-68
2022/08/28 01:22:58;;;;;;;8.80;2.80;;;;;17.10;97159.00;;;;110691;1250;42179;-68
2022/08/28 01:25:32;;;;;;;11.00;3.30;;;;;17.10;97161.00;;;;110719;1250;41889;-68
2022/08/28 01:28:07;;;;;;;8.60;2.60;;;;;17.10;97161.40;;;;110538;1250;41294;-68
2022/08/28 01:30:38;;;;;;;7.70;3.20;;;;;17.10;97161.60;;;;110970;1249;41976;-69
2022/08/28 01:33:08;;;;;;;9.70;3.40;;;;;17.00;97161.60;;;;110776;1251;41719;-69
2022/08/28 01:35:40;;;;;;;9.60;3.50;;;;;16.90;97158.60;;;;110894;1250;41185;-68
2022/08/28 01:38:10;;;;;;;8.90;2.70;;;;;16.82;97162.20;;;;110976;1250;41423;-69
2022/08/28 01:40:42;;;;;;;11.10;3.70;;;;;16.80;97159.20;;;;110827;1251;41144;-69
2022/08/28 01:43:15;;;;;;;8.20;3.60;;;;;16.70;97165.20;;;;110694;1250;41170;-68
2022/08/28 01:45:51;;;;;;;10.40;3.60;;;;;16.64;97164.00;;;;110980;1250;41455;-68
2022/08/28 01:48:24;;;;;;;10.10;3.20;;;;;16.60;97164.00;;;;110797;1248;41700;-69
2022/08/28 01:50:54;;;;;;;11.20;3.60;;;;;16.50;97157.60;;;;110828;1250;41592;-69
2022/08/28 01:53:26;;;;;;;7.90;3.00;;;;;16.50;97157.80;;;;110700;1249;41140;-68
2022/08/28 01:56:04;;;;;;;11.50;2.90;;;;;16.44;97155.00;;;;110664;1250;42445;-68
2022/08/28 01:58:34;;;;;;;9.70;2.90;;;;;16.44;97155.80;;;;110960;1250;41125;-68
2022/08/28 02:01:17;;;;;;;12.90;3.10;;;;;16.44;97158.60;;;;110748;1250;42371;-68
2022/08/28 02:03:47;;;;;;;10.60;3.90;;;;;16.40;97153.20;;;;110567;1251;41604;-68
2022/08/28 02:06:18;;;;;;;7.60;3.20;;;;;16.40;97153.60;;;;110949;1251;41194;-68
2022/08/28 02:08:53;;;;;;;7.10;2.80;;;;;16.40;97154.40;;;;110941;1249;41147;-68
2022/08/28 02:11:24;;;;;;;8.80;3.00;;;;;16.40;97157.40;;;;110971;1249;41945;-68
2022/08/28 02:13:55;;;;;;;7.80;3.00;;;;;16.40;97156.00;;;;110967;1250;41527;-68
2022/08/28 02:16:27;;;;;;;8.30;2.70;;;;;16.40;97157.40;;;;110805;1250;41171;-68
2022/08/28 02:18:59;;;;;;;6.70;2.90;;;;;16.40;97157.40;;;;110904;1250;41158;-68
2022/08/28 02:21:28;;;;;;;7.30;3.10;;;;;16.40;97155.20;;;;110921;1251;41235;-68
2022/08/28 02:23:59;;;;;;;11.60;3.70;;;;;16.40;97153.20;;;;110903;1251;41554;-68
2022/08/28 02:26:30;;;;;;;10.40;3.90;;;;;16.36;97152.60;;;;110886;1250;41621;-68
2022/08/28 02:29:02;;;;;;;14.80;4.10;;;;;16.30;97154.20;;;;110755;1250;42402;-67
2022/08/28 02:31:33;;;;;;;11.00;3.50;;;;;16.20;97156.40;;;;110624;1250;41649;-67
2022/08/28 02:34:05;;;;;;;9.30;3.30;;;;;16.20;97157.00;;;;110802;1249;42078;-67
2022/08/28 02:36:39;;;;;;;7.70;2.90;;;;;16.20;97158.60;;;;110693;1251;41626;-68
2022/08/28 02:39:10;;;;;;;10.40;3.20;;;;;16.10;97162.00;;;;110821;1251;41146;-68
2022/08/28 02:41:40;;;;;;;10.50;3.90;;;;;16.10;97160.60;;;;110764;1251;41476;-67
2022/08/28 02:44:09;;;;;;;11.60;2.70;;;;;16.10;97158.00;;;;110695;1249;41147;-68
2022/08/28 02:46:39;;;;;;;10.30;3.30;;;;;16.10;97161.00;;;;110656;1250;41543;-67
2022/08/28 02:49:09;;;;;;;7.20;2.50;;;;;16.10;97159.60;;;;110640;1250;42342;-67
2022/08/28 02:51:39;;;;;;;7.00;2.60;;;;;16.06;97162.20;;;;110926;1251;41921;-69
2022/08/28 02:54:09;;;;;;;7.80;2.50;;;;;16.02;97160.80;;;;110768;1249;41151;-68
2022/08/28 02:56:40;;;;;;;6.90;2.60;;;;;16.00;97161.20;;;;110906;1250;41140;-69
2022/08/28 02:59:10;;;;;;;7.60;2.80;;;;;16.00;97163.20;;;;110848;1250;41438;-69
2022/08/28 03:01:41;;;;;;;8.20;2.90;;;;;16.00;97161.80;;;;110949;1250;41660;-68
2022/08/28 03:04:12;;;;;;;8.00;2.50;;;;;16.00;97166.40;;;;110715;1249;41164;-66
2022/08/28 03:06:43;;;;;;;6.40;2.40;;;;;16.00;97168.40;;;;110628;1250;41535;-68
2022/08/28 03:09:13;;;;;;;7.80;2.70;;;;;15.98;97171.80;;;;110665;1250;42111;-67
2022/08/28 03:11:43;;;;;;;7.80;3.20;;;;;15.90;97171.00;;;;110758;1249;41538;-69
2022/08/28 03:14:13;;;;;;;5.70;2.60;;;;;15.90;97175.40;;;;110716;1250;41841;-68
2022/08/28 03:16:42;;;;;;;8.30;3.00;;;;;15.90;97170.60;;;;110882;1249;41255;-66
2022/08/28 03:19:12;;;;;;;10.10;3.50;;;;;15.90;97178.80;;;;110734;1250;41944;-65
2022/08/28 03:21:42;;;;;;;8.80;3.00;;;;;15.88;97175.20;;;;110692;1250;41265;-68
2022/08/28 03:24:11;;;;;;;9.00;3.10;;;;;15.80;97175.20;;;;110600;1251;41705;-67
2022/08/28 03:26:45;;;;;;;7.30;2.40;;;;;15.80;97180.00;;;;110861;1251;42381;-67
2022/08/28 03:29:14;;;;;;;6.70;2.60;;;;;15.80;97181.00;;;;110971;1250;41127;-67
2022/08/28 03:31:43;;;;;;;6.70;2.90;;;;;15.78;97187.40;;;;110979;1249;42396;-67
2022/08/28 03:34:12;;;;;;;7.10;2.50;;;;;15.70;97187.40;;;;110996;1249;41894;-68
2022/08/28 03:36:42;;;;;;;8.90;2.70;;;;;15.70;97192.20;;;;110907;1250;41151;-68
2022/08/28 03:39:12;;;;;;;7.20;3.00;;;;;15.70;97197.40;;;;110899;1250;41464;-67
2022/08/28 03:41:41;;;;;;;7.60;2.70;;;;;15.70;97200.60;;;;110918;1249;41340;-67
2022/08/28 03:44:11;;;;;;;8.70;3.10;;;;;15.70;97201.60;;;;110966;1250;41516;-68
2022/08/28 03:46:40;;;;;;;9.50;3.30;;;;;15.70;97202.60;;;;110970;1250;41716;-66
2022/08/28 03:49:09;;;;;;;7.80;3.10;;;;;15.70;97205.20;;;;111025;1250;41159;-68
2022/08/28 03:51:39;;;;;;;12.20;3.20;;;;;15.70;97209.20;;;;110979;1250;41940;-68
2022/08/28 03:54:09;;;;;;;7.60;3.10;;;;;15.70;97205.60;;;;110930;1250;41605;-68
2022/08/28 03:56:40;;;;;;;9.60;3.40;;;;;15.70;97210.80;;;;110799;1250;43262;-68
2022/08/28 03:59:10;;;;;;;9.40;2.90;;;;;15.70;97212.00;;;;110729;1250;41995;-67
2022/08/28 04:01:39;;;;;;;7.50;3.00;;;;;15.72;97217.80;;;;110758;1250;41259;-67
2022/08/28 04:04:09;;;;;;;10.90;3.00;;;;;15.80;97215.40;;;;110892;1250;41496;-67
2022/08/28 04:06:39;;;;;;;6.40;2.40;;;;;15.82;97217.40;;;;110732;1248;42328;-67
2022/08/28 04:09:09;;;;;;;6.30;2.80;;;;;15.90;97212.20;;;;110689;1251;42433;-67
2022/08/28 04:11:42;;;;;;;11.60;3.10;;;;;16.00;97151.20;;;;110908;1250;41128;-68
2022/08/28 04:14:13;;;;;;;10.00;3.50;;;;;16.42;97130.80;;;;110968;1249;41260;-68
2022/08/28 04:16:43;;;;;;;7.90;2.80;;;;;16.80;97122.60;;;;110841;1251;41194;-67
2022/08/28 04:19:14;;;;;;;7.90;3.40;;;;;17.20;97117.20;;;;110924;1251;41370;-68
2022/08/28 04:21:44;;;;;;;11.20;3.70;;;;;17.60;97112.00;;;;110928;1250;41486;-66
2022/08/28 04:24:13;;;;;;;10.70;3.70;;;;;17.90;97115.20;;;;110678;1250;41147;-67
2022/08/28 04:26:42;;;;;;;9.20;3.20;;;;;18.30;97090.40;;;;110965;1250;41186;-67
2022/08/28 04:29:12;;;;;;;7.50;2.60;;;;;18.80;97083.60;;;;110857;1248;41972;-67
2022/08/28 04:31:41;;;;;;;9.00;3.00;;;;;19.32;97079.40;;;;110808;1250;42396;-67
2022/08/28 04:34:12;;;;;;;8.30;2.90;;;;;19.82;97065.80;;;;110889;1249;41170;-67
2022/08/28 04:36:41;;;;;;;8.10;3.20;;;;;20.46;97096.20;;;;110791;1249;41144;-66
2022/08/28 04:39:11;;;;;;;10.70;3.10;;;;;21.20;97153.20;;;;110890;1250;41294;-66
2022/08/28 04:41:40;;;;;;;6.70;2.70;;;;;21.70;97168.00;;;;110680;1250;41137;-66
2022/08/28 04:44:09;;;;;;;11.60;3.00;;;;;22.10;97170.40;;;;110658;1250;42378;-66
2022/08/28 04:46:38;;;;;;;8.40;3.40;;;;;22.58;97171.00;;;;110697;1250;41996;-66
2022/08/28 04:49:09;;;;;;;10.80;3.40;;;;;23.00;97169.60;;;;110680;1248;41267;-66
2022/08/28 04:51:38;;;;;;;7.20;2.80;;;;;23.30;97167.20;;;;110658;1249;41152;-66
2022/08/28 04:54:10;;;;;;;7.60;2.80;;;;;23.70;97163.40;;;;109592;1250;1523006;-67
2022/08/28 04:56:40;;;;;;;11.20;3.30;;;;;24.10;97164.20;;;;110699;1250;41164;-68
2022/08/28 04:59:10;;;;;;;13.10;3.50;;;;;23.96;97160.40;;;;110792;1250;41144;-68
2022/08/28 05:01:41;;;;;;;10.00;3.60;;;;;24.02;97164.80;;;;110626;1250;41169;-67
2022/08/28 05:04:11;;;;;;;8.70;2.90;;;;;24.30;97168.00;;;;110968;1249;42388;-68
2022/08/28 05:06:45;;;;;;;11.90;3.50;;;;;24.70;97167.60;;;;110683;1250;41701;-67
2022/08/28 05:09:17;;;;;;;6.60;2.70;;;;;25.30;97172.20;;;;110745;1249;41153;-68
2022/08/28 05:11:47;;;;;;;8.50;3.10;;;;;25.80;97181.40;;;;110689;1249;41367;-67
2022/08/28 05:14:16;;;;;;;8.90;3.10;;;;;26.20;97179.40;;;;110681;1250;41625;-68
2022/08/28 05:16:47;;;;;;;10.50;3.80;;;;;26.60;97180.20;;;;110648;1250;41436;-70
2022/08/28 05:19:17;;;;;;;9.20;3.10;;;;;26.84;97174.00;;;;110924;1250;41204;-68
2022/08/28 05:21:46;;;;;;;10.90;3.60;;;;;26.52;97178.40;;;;110943;1250;41265;-68
2022/08/28 05:24:15;;;;;;;8.50;3.40;;;;;26.34;97174.80;;;;110785;1251;41464;-68
2022/08/28 05:26:44;;;;;;;10.40;3.10;;;;;26.30;97176.40;;;;110646;1249;41159;-68
2022/08/28 05:29:17;;;;;;;7.30;2.80;;;;;26.80;97179.00;;;;110723;1249;42363;-68
2022/08/28 05:31:46;;;;;;;7.70;3.00;;;;;27.30;97179.80;;;;110629;1250;41187;-68
2022/08/28 05:34:16;;;;;;;9.90;2.70;;;;;27.72;97180.40;;;;110863;1250;41274;-69
2022/08/28 05:36:45;;;;;;;8.80;2.70;;;;;28.10;97183.20;;;;110891;1250;41667;-69
2022/08/28 05:39:15;;;;;;;6.00;2.50;;;;;28.70;97177.00;;;;110745;1251;41156;-69
2022/08/28 05:41:45;;;;;;;9.90;2.70;;;;;29.20;97177.20;;;;110798;1250;41327;-69
2022/08/28 05:44:16;;;;;;;9.80;3.10;;;;;29.70;97172.00;;;;110966;1250;41631;-69
2022/08/28 05:46:49;;;;;;;7.20;3.00;;;;;30.00;97172.80;;;;110868;1249;41614;-69
2022/08/28 05:49:19;;;;;;;11.50;3.40;;;;;30.30;97168.00;;;;110644;1251;41155;-70
2022/08/28 05:51:48;;;;;;;8.40;2.90;;;;;30.60;97174.80;;;;110876;1249;41162;-69
2022/08/28 05:54:17;;;;;;;10.40;3.00;;;;;30.86;97175.60;;;;110780;1249;41117;-69
2022/08/28 05:56:46;;;;;;;10.50;3.30;;;;;30.92;97177.80;;;;110886;1250;41147;-69
2022/08/28 05:59:15;;;;;;;14.70;3.60;;;;;31.00;97180.60;;;;110965;1248;41155;-69
2022/08/28 06:01:47;;;;;;;9.00;3.30;;;;;31.12;97188.60;;;;110803;1248;42290;-68
2022/08/28 06:04:23;;;;;;;9.70;2.60;;;;;30.76;97186.00;;;;110831;1249;41466;-70
2022/08/28 06:06:53;;;;;;;8.30;3.10;;;;;30.92;97187.60;;;;110955;1250;41274;-69
2022/08/28 06:09:27;;;;;;;8.10;3.20;;;;;31.20;97190.00;;;;110713;1250;41243;-69
2022/08/28 06:12:00;;;;;;;9.60;2.80;;;;;31.20;97194.60;;;;110661;1249;41130;-70
2022/08/28 06:14:30;;;;;;;9.50;3.10;;;;;31.00;97199.20;;;;110768;1249;41968;-69
2022/08/28 06:17:00;;;;;;;8.10;2.60;;;;;31.02;97201.20;;;;110715;1251;41145;-70
2022/08/28 06:19:31;;;;;;;9.90;2.60;;;;;31.12;97208.20;;;;110756;1249;41262;-70
2022/08/28 06:22:02;;;;;;;10.30;2.60;;;;;31.18;97206.60;;;;110876;1251;41160;-70
2022/08/28 06:24:37;;;;;;;7.40;2.30;;;;;31.40;97202.40;;;;110842;1250;40992;-70
2022/08/28 06:27:06;;;;;;;7.70;2.50;;;;;32.00;97200.40;;;;110926;1249;41172;-69
2022/08/28 06:29:35;;;;;;;9.30;2.60;;;;;32.40;97201.80;;;;110857;1251;41458;-70
2022/08/28 06:32:04;;;;;;;6.20;2.30;;;;;32.80;97197.40;;;;110762;1249;41159;-70
2022/08/28 06:34:33;;;;;;;11.70;2.70;;;;;33.00;97200.80;;;;110817;1250;41274;-70
2022/08/28 06:37:02;;;;;;;7.30;2.60;;;;;33.18;97202.40;;;;110683;1249;41562;-69
2022/08/28 06:39:31;;;;;;;6.70;2.20;;;;;33.00;97205.20;;;;110762;1249;42308;-69
2022/08/28 06:42:00;;;;;;;9.20;2.20;;;;;33.28;97202.40;;;;110934;1249;42426;-69
2022/08/28 06:44:30;;;;;;;10.40;2.90;;;;;33.50;97204.40;;;;110968;1249;41174;-68
2022/08/28 06:46:59;;;;;;;9.50;2.50;;;;;32.68;97205.00;;;;110938;1250;41838;-71
2022/08/28 06:49:28;;;;;;;9.60;2.30;;;;;32.60;97212.40;;;;110843;1250;41994;-70
2022/08/28 06:51:57;;;;;;;10.10;2.80;;;;;33.10;97214.80;;;;110669;1249;41613;-70
2022/08/28 06:54:29;;;;;;;11.00;2.40;;;;;32.78;97215.20;;;;110674;1249;41146;-70
2022/08/28 06:56:58;;;;;;;9.70;2.80;;;;;32.60;97211.60;;;;110656;1251;41819;-71
2022/08/28 06:59:27;;;;;;;10.00;2.60;;;;;32.70;97214.60;;;;110896;1249;41278;-70
2022/08/28 07:01:56;;;;;;;8.00;2.60;;;;;32.80;97216.60;;;;110902;1249;41611;-70
2022/08/28 07:04:26;;;;;;;7.90;2.50;;;;;33.30;97219.20;;;;110778;1250;41610;-71
2022/08/28 07:06:55;;;;;;;13.20;2.20;;;;;33.58;97217.20;;;;110986;1249;41138;-71
2022/08/28 07:09:24;;;;;;;9.50;2.70;;;;;34.00;97216.40;;;;110726;1250;41443;-71
2022/08/28 07:11:53;;;;;;;9.40;2.20;;;;;34.48;97216.80;;;;110825;1249;42010;-71
2022/08/28 07:14:23;;;;;;;10.40;2.40;;;;;34.58;97212.80;;;;110884;1249;41578;-71
2022/08/28 07:16:52;;;;;;;9.70;2.70;;;;;34.80;97211.60;;;;110763;1249;41166;-71
2022/08/28 07:19:21;;;;;;;10.40;2.60;;;;;34.74;97211.60;;;;110723;1249;41280;-71
2022/08/28 07:21:50;;;;;;;8.10;2.20;;;;;34.30;97212.80;;;;110876;1249;42413;-71
2022/08/28 07:24:19;;;;;;;7.80;2.40;;;;;34.96;97217.00;;;;110608;1250;41259;-71
2022/08/28 07:26:48;;;;;;;9.60;2.20;;;;;35.70;97216.40;;;;110637;1250;41155;-72
2022/08/28 07:29:17;;;;;;;17.00;3.00;;;;;36.00;97210.20;;;;110743;1250;41195;-72
2022/08/28 07:31:48;;;;;;;10.60;2.90;;;;;35.88;97213.20;;;;110677;1250;42231;-71
2022/08/28 07:34:20;;;;;;;8.70;2.60;;;;;35.50;97213.00;;;;110662;1249;41643;-72
2022/08/28 07:36:51;;;;;;;7.60;2.30;;;;;35.50;97210.60;;;;110627;1251;41181;-72
2022/08/28 07:39:20;;;;;;;9.50;2.50;;;;;35.56;97214.00;;;;110743;1248;41221;-70
2022/08/28 07:41:49;;;;;;;8.10;2.60;;;;;35.38;97212.00;;;;110785;1249;41130;-71
2022/08/28 07:47:06;;;;;;;9.10;2.50;;;;;35.70;97216.80;;;;110666;1249;41281;-72
2022/08/28 07:49:37;;;;;;;6.90;2.50;;;;;36.10;97216.40;;;;110782;1250;41130;-72
2022/08/28 07:52:07;;;;;;;13.40;2.70;;;;;36.04;97213.80;;;;110824;1250;41740;-71
2022/08/28 07:54:39;;;;;;;10.20;3.10;;;;;35.02;97222.40;;;;110834;1248;41431;-72
2022/08/28 07:57:09;;;;;;;8.70;2.30;;;;;33.62;97225.20;;;;110937;1249;41179;-72
2022/08/28 07:59:39;;;;;;;9.60;2.70;;;;;32.66;97233.40;;;;110762;1249;41164;-70
2022/08/28 08:02:09;;;;;;;12.10;3.10;;;;;32.60;97235.80;;;;110684;1250;41159;-71
2022/08/28 08:04:39;;;;;;;9.30;2.80;;;;;32.22;97240.00;;;;110552;1251;41312;-71
2022/08/28 08:07:08;;;;;;;13.10;2.50;;;;;32.12;97245.00;;;;110848;1250;41154;-71
2022/08/28 08:09:40;;;;;;;9.50;2.10;;;;;31.90;97238.80;;;;110768;1249;41594;-71
2022/08/28 08:12:10;;;;;;;9.60;2.90;;;;;32.30;97239.20;;;;110910;1250;41173;-71
2022/08/28 08:14:40;;;;;;;10.50;3.00;;;;;32.94;97239.60;;;;110904;1249;42349;-71
2022/08/28 08:17:09;;;;;;;;;;;;;33.50;97233.00;;;;110750;1250;42184;-72
2022/08/28 08:19:39;;;;;;;7.80;2.30;;;;;34.58;97227.80;;;;110743;1249;41149;-71
2022/08/28 08:22:08;;;;;;;5.50;2.20;;;;;35.98;97227.60;;;;110677;1249;41215;-72
2022/08/28 08:24:37;;;;;;;10.80;2.60;;;;;37.02;97223.80;;;;110655;1250;41469;-72
2022/08/28 08:27:06;;;;;;;5.30;1.90;;;;;37.10;97221.00;;;;110599;1250;41489;-72
2022/08/28 08:29:37;;;;;;;7.80;2.60;;;;;37.22;97225.40;;;;110718;1249;41974;-72
2022/08/28 08:32:09;;;;;;;9.30;2.60;;;;;37.50;97222.80;;;;110858;1249;41641;-72
2022/08/28 08:34:41;;;;;;;8.30;2.70;;;;;37.84;97221.00;;;;110756;1248;41597;-72
2022/08/28 08:37:12;;;;;;;6.60;2.20;;;;;37.60;97223.80;;;;110935;1249;41180;-72
2022/08/28 08:39:42;;;;;;;7.80;2.60;;;;;38.06;97223.00;;;;110764;1249;41134;-72
2022/08/28 08:42:21;;;;;;;;;;;;;38.24;97226.80;;;;110625;1249;41752;-72
2022/08/28 08:44:51;;;;;;;9.60;2.60;;;;;38.66;97228.40;;;;110649;1249;41277;-72
2022/08/28 08:47:47;;;;;;;11.40;2.90;;;;;38.34;97232.20;;;;110648;1249;41636;-72
2022/08/28 08:50:30;;;;;;;8.10;2.50;;;;;37.96;97234.20;;;;110826;1249;41140;-71
2022/08/28 08:53:34;;;;;;;10.20;2.70;;;;;37.60;97241.20;;;;110663;1250;41179;-72
2022/08/28 08:56:05;;;;;;;6.00;2.20;;;;;38.14;97233.60;;;;110814;1249;41174;-72
2022/08/28 08:58:44;;;;;;;7.90;2.70;;;;;38.96;97233.20;;;;110789;1250;41260;-73
2022/08/28 09:01:33;;;;;;;8.70;2.80;;;;;38.80;97236.40;;;;110612;1248;41169;-72
2022/08/28 09:04:33;;;;;;;7.40;2.30;;;;;38.70;97232.60;;;;110661;1250;42555;-72
2022/08/28 09:07:14;;;;;;;8.30;2.30;;;;;38.76;97234.20;;;;110716;1249;41167;-72
2022/08/28 09:09:46;;;;;;;8.10;2.40;;;;;39.24;97233.20;;;;110622;1251;41271;-72
2022/08/28 09:12:27;;;;;;;10.40;2.50;;;;;39.00;97227.60;;;;110631;1250;41344;-72
2022/08/28 09:15:12;;;;;;;6.40;1.90;;;;;39.30;97230.40;;;;110665;1249;41718;-72
2022/08/28 09:17:51;;;;;;;7.10;2.10;;;;;39.44;97229.80;;;;110789;1251;41159;-73
2022/08/28 09:20:24;;;;;;;5.50;2.10;;;;;40.06;97232.80;;;;110757;1249;41464;-72
2022/08/28 09:23:01;;;;;;;7.40;2.30;;;;;40.84;97234.00;;;;110554;1249;41325;-73
2022/08/28 09:25:43;;;;;;;;;;;;;40.72;97230.80;;;;110930;1249;41149;-73
2022/08/28 09:28:26;;;;;;;7.90;2.50;;;;;41.00;97230.40;;;;110779;1249;41147;-72
2022/08/28 09:30:58;;;;;;;6.60;2.20;;;;;40.66;97232.80;;;;110749;1251;41161;-72
2022/08/28 09:33:41;;;;;;;7.10;2.40;;;;;40.18;97234.40;;;;110919;1248;41722;-73
2022/08/28 09:36:31;;;;;;;10.50;2.20;;;;;40.50;97238.00;;;;110552;1251;41280;-73
2022/08/28 09:39:07;;;;;;;6.90;2.10;;;;;41.32;97234.20;;;;110516;1251;41609;-73
2022/08/28 09:45:17;;;;;;;8.90;2.60;;;;;41.04;97231.40;;;;110802;1249;41136;-71
2022/08/28 09:48:01;;;;;;;5.80;2.20;;;;;40.20;97232.60;;;;110633;1249;41323;-72
2022/08/28 09:50:38;;;;;;;7.90;2.70;;;;;40.18;97234.20;;;;110600;1248;41606;-72
2022/08/28 09:53:10;;;;;;;12.20;2.20;;;;;40.22;97235.20;;;;110617;1249;41508;-72
2022/08/28 09:56:10;;;;;;;5.70;2.20;;;;;40.32;97231.00;;;;110634;1249;41149;-72
2022/08/28 09:58:43;;;;;;;9.10;2.50;;;;;39.60;97228.00;;;;110829;1249;41183;-73
2022/08/28 10:01:33;;;;;;;5.80;2.00;;;;;38.94;97226.80;;;;110846;1249;41356;-73
2022/08/28 10:04:10;;;;;;;9.00;2.20;;;;;38.66;97228.80;;;;110729;1249;41907;-73
2022/08/28 10:06:40;;;;;;;9.40;2.60;;;;;38.90;97221.80;;;;110715;1250;41640;-73
2022/08/28 10:09:29;;;;;;;7.80;2.40;;;;;39.30;97221.60;;;;110569;1251;41275;-73
2022/08/28 10:12:22;;;;;;;5.60;2.10;;;;;39.70;97218.40;;;;110881;1249;41906;-73
2022/08/28 10:15:01;;;;;;;8.70;2.30;;;;;40.08;97211.80;;;;110873;1249;41172;-73
2022/08/28 10:17:39;;;;;;;;;;;;;40.52;97210.00;;;;110806;1249;41736;-73
2022/08/28 10:20:26;;;;;;;9.70;2.20;;;;;40.70;97202.80;;;;110758;1250;41371;-73
2022/08/28 10:23:23;;;;;;;8.40;2.20;;;;;39.96;97203.00;;;;110595;1251;41165;-72
2022/08/28 10:25:57;;;;;;;9.50;1.90;;;;;39.68;97204.80;;;;110839;1249;41197;-72
2022/08/28 10:28:41;;;;;;;5.20;2.00;;;;;39.88;97200.80;;;;110651;1251;41956;-72
2022/08/28 10:31:23;;;;;;;6.60;2.40;;;;;39.38;97197.80;;;;110681;1249;41585;-72
2022/08/28 10:34:30;;;;;;;7.30;2.00;;;;;39.80;97194.60;;;;110652;1250;41191;-72
2022/08/28 10:37:19;;;;;;;11.60;2.60;;;;;40.02;97196.60;;;;110723;1249;41319;-73
2022/08/28 10:39:57;;;;;;;11.10;2.30;;;;;40.20;97193.00;;;;110457;1249;42646;-73
2022/08/28 10:42:33;;;;;;;10.40;2.20;;;;;40.20;97191.40;;;;110591;1250;41978;-73
2022/08/28 10:45:14;;;;;;;5.20;1.90;;;;;40.18;97196.40;;;;110947;1249;41257;-73
2022/08/28 10:47:47;;;;;;;6.50;2.10;;;;;40.48;97193.40;;;;110693;1249;41174;-73
2022/08/28 10:50:26;;;;;;;5.50;1.80;;;;;40.68;97190.40;;;;110715;1250;41134;-73
2022/08/28 10:53:16;;;;;;;7.70;2.70;;;;;41.26;97188.00;;;;110963;1250;41143;-73
2022/08/28 10:55:54;;;;;;;7.50;2.10;;;;;42.00;97186.60;;;;110952;1250;41659;-73
2022/08/28 10:58:25;;;;;;;5.00;1.80;;;;;42.48;97187.00;;;;110902;1250;41157;-72
2022/08/28 11:01:00;;;;;;;7.50;2.20;;;;;42.34;97181.40;;;;110830;1251;41162;-73
2022/08/28 11:03:32;;;;;;;5.20;1.80;;;;;42.14;97183.80;;;;110819;1249;41903;-73
2022/08/28 11:06:10;;;;;;;9.00;2.10;;;;;41.58;97187.40;;;;110805;1249;41309;-73
2022/08/28 11:08:39;;;;;;;6.30;2.20;;;;;41.24;97187.00;;;;110715;1249;41147;-73
2022/08/28 11:11:13;;;;;;;8.50;2.10;;;;;40.72;97186.60;;;;110910;1251;42397;-74
2022/08/28 11:13:58;;;;;;;10.90;2.00;;;;;40.90;97184.40;;;;110697;1249;41160;-74
2022/08/28 11:16:27;;;;;;;6.20;1.80;;;;;41.30;97184.20;;;;110669;1249;41156;-72
2022/08/28 11:19:13;;;;;;;5.50;1.60;;;;;41.80;97175.40;;;;110683;1248;41230;-73
2022/08/28 11:22:08;;;;;;;11.70;2.60;;;;;42.46;97177.80;;;;110591;1251;41613;-74
2022/08/28 11:24:37;;;;;;;7.00;2.30;;;;;43.10;97176.80;;;;110957;1250;41629;-74
2022/08/28 11:27:15;;;;;;;6.10;2.30;;;;;43.74;97172.60;;;;110655;1249;42352;-74
2022/08/28 11:30:03;;;;;;;5.40;1.90;;;;;44.54;97166.00;;;;110881;1249;41913;-74
2022/08/28 11:32:40;;;;;;;5.30;1.70;;;;;45.36;97165.20;;;;110979;1250;41134;-74
2022/08/28 11:35:29;;;;;;;4.50;1.80;;;;;45.70;97160.80;;;;110910;1250;41188;-74
2022/08/28 11:37:58;;;;;;;6.00;1.90;;;;;46.04;97161.20;;;;110773;1248;41591;-74
2022/08/28 11:40:29;;;;;;;5.50;2.00;;;;;46.38;97155.20;;;;110545;1251;41160;-74
2022/08/28 11:43:13;;;;;;;5.10;1.60;;;;;46.36;97157.40;;;;110736;1249;41871;-74
2022/08/28 11:45:44;;;;;;;7.00;1.60;;;;;46.80;97154.40;;;;110899;1249;41946;-75
2022/08/28 11:48:32;;;;;;;4.90;1.70;;;;;47.16;97153.20;;;;110825;1249;41146;-73
2022/08/28 11:51:03;;;;;;;5.50;1.80;;;;;47.20;97148.40;;;;110756;1249;42491;-74
2022/08/28 11:54:19;;;;;;;4.20;1.70;;;;;47.30;97150.00;;;;110613;1250;41276;-74
2022/08/28 11:57:06;;;;;;;6.30;1.60;;;;;47.66;97149.40;;;;110410;1248;41527;-75
2022/08/28 11:59:38;;;;;;;7.00;1.90;;;;;48.02;97145.40;;;;110779;1249;40741;-74
2022/08/28 12:02:34;;;;;;;6.30;1.80;;;;;48.30;97146.80;;;;110637;1249;41278;-75
2022/08/28 12:05:29;;;;;;;3.80;1.60;;;;;47.94;97146.20;;;;110798;1250;41273;-75
2022/08/28 12:08:02;;;;;;;3.70;1.60;;;;;47.70;97148.00;;;;110689;1249;41487;-75
2022/08/28 12:10:33;;;;;;;6.50;1.40;;;;;47.80;97150.40;;;;110619;1251;41170;-75
2022/08/28 12:13:04;;;;;;;5.20;1.80;;;;;47.94;97149.00;;;;110718;1251;41997;-75
2022/08/28 12:15:32;;;;;;;5.90;2.00;;;;;48.00;97154.60;;;;110940;1250;41253;-74
2022/08/28 12:18:10;;;;;;;9.60;2.40;;;;;47.98;97157.40;;;;110629;1251;41171;-73
2022/08/28 12:20:52;;;;;;;6.90;2.00;;;;;47.54;97160.00;;;;110954;1250;41148;-74
2022/08/28 12:23:36;;;;;;;7.50;2.20;;;;;47.46;97158.00;;;;110745;1250;41707;-74
2022/08/28 12:26:18;;;;;;;6.00;1.80;;;;;47.28;97160.40;;;;110640;1249;41149;-74
2022/08/28 12:28:53;;;;;;;4.40;1.50;;;;;47.32;97159.20;;;;110797;1248;41276;-74
2022/08/28 12:34:53;;;;;;;3.20;1.40;;;;;47.60;97157.20;;;;110825;1251;41539;-74
2022/08/28 12:37:44;;;;;;;3.50;1.60;;;;;47.90;97150.20;;;;110866;1249;41189;-75
2022/08/28 12:40:21;;;;;;;;;;;;;48.14;97146.00;;;;110886;1249;41178;-74
2022/08/28 12:42:55;;;;;;;6.20;1.80;;;;;47.94;97151.20;;;;110805;1249;41134;-74
2022/08/28 12:45:32;;;;;;;6.30;1.70;;;;;47.60;97153.60;;;;110834;1249;42349;-75
2022/08/28 12:48:17;;;;;;;5.70;1.70;;;;;47.16;97153.80;;;;111054;1248;42560;-74
2022/08/28 12:50:46;;;;;;;7.70;2.00;;;;;47.10;97149.80;;;;111206;1248;41469;-74